KNUC

San Clemente Island Nalf Airport

San Clemente Island, California, USA
METAR KNUC 181222Z AUTO 33004KT BKN011 BKN015 BKN025 13/13 A3019 RMK AO2 CIG 008V013 T01330133 $
Observed Flight Rules
Dec-18 @ 12:22 UTC (47 minutes ago)
Wind Clouds
330° at 4 knots
  • Broken at 1,100' AGL
  • Broken at 1,500' AGL
  • Broken at 2,500' AGL
Temperatures Readings
Current 13°C / 55°F
Dewpoint 13°C / 55°F
Humidity 100%
Altimeter 30.19" Hg
Pressure 1022 hPa
Elevation 55
METAR KNUC 181222Z AUTO 33004KT BKN011 BKN015 BKN025 13/13 A3019 RMK AO2 CIG 008V013 T01330133 $
Observed Flight Rules
Dec-18 @ 12:22 UTC
(47 minutes ago)
Wind
330° at 4 knots
Clouds
  • Broken at 1,100' AGL
  • Broken at 1,500' AGL
  • Broken at 2,500' AGL
Temperature Dewpoint
13°C / 55°F 13°C / 55°F
Humidity Altimeter Pressure
100% 30.19" Hg 1022 hPa